sensor_id;sensor_type;location;lat;lon;timestamp;P1;durP1;ratioP1;P2;durP2;ratioP2
5452;SDS011;2749;53.576;9.822;2023-04-24T00:00:42;9.10;;;8.20;;
5452;SDS011;2749;53.576;9.822;2023-04-24T00:03:09;10.00;;;9.00;;
5452;SDS011;2749;53.576;9.822;2023-04-24T00:05:36;10.20;;;8.70;;
5452;SDS011;2749;53.576;9.822;2023-04-24T00:08:02;10.70;;;9.33;;
5452;SDS011;2749;53.576;9.822;2023-04-24T00:10:28;8.50;;;7.70;;
5452;SDS011;2749;53.576;9.822;2023-04-24T00:12:53;8.83;;;7.83;;
5452;SDS011;2749;53.576;9.822;2023-04-24T00:15:19;9.40;;;8.50;;
5452;SDS011;2749;53.576;9.822;2023-04-24T00:17:45;9.80;;;8.90;;
5452;SDS011;2749;53.576;9.822;2023-04-24T00:20:11;8.93;;;7.90;;
5452;SDS011;2749;53.576;9.822;2023-04-24T00:22:39;9.00;;;8.10;;
5452;SDS011;2749;53.576;9.822;2023-04-24T00:25:05;8.50;;;7.73;;
5452;SDS011;2749;53.576;9.822;2023-04-24T00:27:31;8.50;;;7.70;;
5452;SDS011;2749;53.576;9.822;2023-04-24T00:29:57;8.67;;;7.83;;
5452;SDS011;2749;53.576;9.822;2023-04-24T00:32:23;8.50;;;7.80;;
5452;SDS011;2749;53.576;9.822;2023-04-24T00:34:49;10.23;;;7.67;;
5452;SDS011;2749;53.576;9.822;2023-04-24T00:37:15;7.80;;;7.00;;
5452;SDS011;2749;53.576;9.822;2023-04-24T00:39:41;8.30;;;7.50;;
5452;SDS011;2749;53.576;9.822;2023-04-24T00:42:07;8.03;;;6.40;;
5452;SDS011;2749;53.576;9.822;2023-04-24T00:44:33;8.27;;;7.57;;
5452;SDS011;2749;53.576;9.822;2023-04-24T00:46:59;8.77;;;7.97;;
5452;SDS011;2749;53.576;9.822;2023-04-24T00:49:26;8.57;;;7.63;;
5452;SDS011;2749;53.576;9.822;2023-04-24T00:51:52;8.33;;;7.40;;
5452;SDS011;2749;53.576;9.822;2023-04-24T00:54:18;7.60;;;7.00;;
5452;SDS011;2749;53.576;9.822;2023-04-24T00:56:45;8.40;;;7.40;;
5452;SDS011;2749;53.576;9.822;2023-04-24T00:59:16;7.40;;;6.60;;
5452;SDS011;2749;53.576;9.822;2023-04-24T01:01:43;8.03;;;6.87;;
5452;SDS011;2749;53.576;9.822;2023-04-24T01:04:09;8.57;;;7.87;;
5452;SDS011;2749;53.576;9.822;2023-04-24T01:06:35;7.93;;;7.23;;
5452;SDS011;2749;53.576;9.822;2023-04-24T01:09:02;7.30;;;6.70;;
5452;SDS011;2749;53.576;9.822;2023-04-24T01:11:28;8.23;;;7.43;;
5452;SDS011;2749;53.576;9.822;2023-04-24T01:13:54;7.20;;;6.53;;
5452;SDS011;2749;53.576;9.822;2023-04-24T01:16:20;9.47;;;5.97;;
5452;SDS011;2749;53.576;9.822;2023-04-24T01:18:47;6.03;;;5.43;;
5452;SDS011;2749;53.576;9.822;2023-04-24T01:21:13;6.90;;;5.80;;
5452;SDS011;2749;53.576;9.822;2023-04-24T01:23:41;6.40;;;5.90;;
5452;SDS011;2749;53.576;9.822;2023-04-24T01:26:07;5.77;;;5.27;;
5452;SDS011;2749;53.576;9.822;2023-04-24T01:28:33;5.47;;;4.97;;
5452;SDS011;2749;53.576;9.822;2023-04-24T01:30:59;5.20;;;4.30;;
5452;SDS011;2749;53.576;9.822;2023-04-24T01:33:25;5.07;;;4.60;;
5452;SDS011;2749;53.576;9.822;2023-04-24T01:35:51;3.80;;;3.50;;
5452;SDS011;2749;53.576;9.822;2023-04-24T01:38:17;4.67;;;4.30;;
5452;SDS011;2749;53.576;9.822;2023-04-24T01:40:43;3.83;;;3.53;;
5452;SDS011;2749;53.576;9.822;2023-04-24T01:43:10;3.40;;;3.10;;
5452;SDS011;2749;53.576;9.822;2023-04-24T01:45:35;6.83;;;3.50;;
5452;SDS011;2749;53.576;9.822;2023-04-24T01:48:01;4.27;;;3.97;;
5452;SDS011;2749;53.576;9.822;2023-04-24T01:50:27;3.80;;;3.40;;
5452;SDS011;2749;53.576;9.822;2023-04-24T01:52:53;3.30;;;3.10;;
5452;SDS011;2749;53.576;9.822;2023-04-24T01:55:20;4.00;;;2.97;;
5452;SDS011;2749;53.576;9.822;2023-04-24T01:57:46;3.57;;;3.30;;
5452;SDS011;2749;53.576;9.822;2023-04-24T02:00:12;2.93;;;2.73;;
5452;SDS011;2749;53.576;9.822;2023-04-24T02:02:39;3.50;;;3.20;;
5452;SDS011;2749;53.576;9.822;2023-04-24T02:05:06;3.60;;;3.30;;
5452;SDS011;2749;53.576;9.822;2023-04-24T02:07:32;3.20;;;3.00;;
5452;SDS011;2749;53.576;9.822;2023-04-24T02:09:58;3.40;;;3.10;;
5452;SDS011;2749;53.576;9.822;2023-04-24T02:12:24;2.93;;;2.73;;
5452;SDS011;2749;53.576;9.822;2023-04-24T02:14:50;3.97;;;3.67;;
5452;SDS011;2749;53.576;9.822;2023-04-24T02:17:16;3.57;;;3.27;;
5452;SDS011;2749;53.576;9.822;2023-04-24T02:19:42;3.40;;;2.90;;
5452;SDS011;2749;53.576;9.822;2023-04-24T02:22:08;3.87;;;3.23;;
5452;SDS011;2749;53.576;9.822;2023-04-24T02:24:35;3.57;;;2.80;;
5452;SDS011;2749;53.576;9.822;2023-04-24T02:27:01;2.57;;;2.37;;
5452;SDS011;2749;53.576;9.822;2023-04-24T02:29:27;3.00;;;2.80;;
5452;SDS011;2749;53.576;9.822;2023-04-24T02:31:53;3.47;;;3.17;;
5452;SDS011;2749;53.576;9.822;2023-04-24T02:34:19;2.60;;;2.40;;
5452;SDS011;2749;53.576;9.822;2023-04-24T02:36:45;2.80;;;2.60;;
5452;SDS011;2749;53.576;9.822;2023-04-24T02:39:11;2.20;;;2.10;;
5452;SDS011;2749;53.576;9.822;2023-04-24T02:41:38;2.83;;;2.63;;
5452;SDS011;2749;53.576;9.822;2023-04-24T02:44:04;3.07;;;2.70;;
5452;SDS011;2749;53.576;9.822;2023-04-24T02:46:30;2.60;;;2.40;;
5452;SDS011;2749;53.576;9.822;2023-04-24T02:48:56;2.87;;;2.63;;
5452;SDS011;2749;53.576;9.822;2023-04-24T02:51:22;2.83;;;2.47;;
5452;SDS011;2749;53.576;9.822;2023-04-24T02:53:47;3.97;;;2.80;;
5452;SDS011;2749;53.576;9.822;2023-04-24T02:56:13;2.87;;;2.67;;
5452;SDS011;2749;53.576;9.822;2023-04-24T02:58:39;3.23;;;2.70;;
5452;SDS011;2749;53.576;9.822;2023-04-24T03:01:05;2.70;;;2.50;;
5452;SDS011;2749;53.576;9.822;2023-04-24T03:03:31;2.77;;;2.57;;
5452;SDS011;2749;53.576;9.822;2023-04-24T03:05:57;2.90;;;2.70;;
5452;SDS011;2749;53.576;9.822;2023-04-24T03:08:24;3.23;;;2.93;;
5452;SDS011;2749;53.576;9.822;2023-04-24T03:10:49;4.03;;;3.67;;
5452;SDS011;2749;53.576;9.822;2023-04-24T03:13:15;5.30;;;3.20;;
5452;SDS011;2749;53.576;9.822;2023-04-24T03:15:41;3.10;;;2.80;;
5452;SDS011;2749;53.576;9.822;2023-04-24T03:18:07;3.30;;;3.00;;
5452;SDS011;2749;53.576;9.822;2023-04-24T03:20:33;3.80;;;3.40;;
5452;SDS011;2749;53.576;9.822;2023-04-24T03:23:01;2.60;;;2.40;;
5452;SDS011;2749;53.576;9.822;2023-04-24T03:25:27;3.70;;;3.40;;
5452;SDS011;2749;53.576;9.822;2023-04-24T03:27:53;3.53;;;3.23;;
5452;SDS011;2749;53.576;9.822;2023-04-24T03:30:19;4.40;;;2.83;;
5452;SDS011;2749;53.576;9.822;2023-04-24T03:32:45;3.73;;;2.83;;
5452;SDS011;2749;53.576;9.822;2023-04-24T03:35:11;3.30;;;3.00;;
5452;SDS011;2749;53.576;9.822;2023-04-24T03:37:37;2.73;;;2.53;;
5452;SDS011;2749;53.576;9.822;2023-04-24T03:40:03;3.00;;;2.73;;
5452;SDS011;2749;53.576;9.822;2023-04-24T03:42:30;5.40;;;2.83;;
5452;SDS011;2749;53.576;9.822;2023-04-24T03:44:56;2.50;;;2.30;;
5452;SDS011;2749;53.576;9.822;2023-04-24T03:47:22;2.97;;;2.77;;
5452;SDS011;2749;53.576;9.822;2023-04-24T03:49:48;2.70;;;2.50;;
5452;SDS011;2749;53.576;9.822;2023-04-24T03:52:14;2.83;;;2.50;;
5452;SDS011;2749;53.576;9.822;2023-04-24T03:54:40;2.30;;;2.10;;
5452;SDS011;2749;53.576;9.822;2023-04-24T03:57:06;2.80;;;2.43;;
5452;SDS011;2749;53.576;9.822;2023-04-24T03:59:32;2.77;;;2.57;;
5452;SDS011;2749;53.576;9.822;2023-04-24T04:01:58;4.33;;;3.00;;
5452;SDS011;2749;53.576;9.822;2023-04-24T04:04:24;3.97;;;2.70;;
5452;SDS011;2749;53.576;9.822;2023-04-24T04:06:50;3.07;;;2.87;;
5452;SDS011;2749;53.576;9.822;2023-04-24T04:09:17;3.30;;;2.40;;
5452;SDS011;2749;53.576;9.822;2023-04-24T04:11:42;3.80;;;3.50;;
5452;SDS011;2749;53.576;9.822;2023-04-24T04:14:08;3.23;;;2.93;;
5452;SDS011;2749;53.576;9.822;2023-04-24T04:16:34;2.57;;;2.37;;
5452;SDS011;2749;53.576;9.822;2023-04-24T04:19:01;2.60;;;2.40;;
5452;SDS011;2749;53.576;9.822;2023-04-24T04:21:28;2.77;;;2.57;;
5452;SDS011;2749;53.576;9.822;2023-04-24T04:23:54;2.73;;;2.13;;
5452;SDS011;2749;53.576;9.822;2023-04-24T04:26:19;2.37;;;2.17;;
5452;SDS011;2749;53.576;9.822;2023-04-24T04:28:46;2.50;;;2.30;;
5452;SDS011;2749;53.576;9.822;2023-04-24T04:31:12;2.20;;;2.00;;
5452;SDS011;2749;53.576;9.822;2023-04-24T04:33:38;3.80;;;3.03;;
5452;SDS011;2749;53.576;9.822;2023-04-24T04:36:04;3.47;;;3.17;;
5452;SDS011;2749;53.576;9.822;2023-04-24T04:38:30;2.70;;;2.50;;
5452;SDS011;2749;53.576;9.822;2023-04-24T04:40:56;3.63;;;2.43;;
5452;SDS011;2749;53.576;9.822;2023-04-24T04:43:23;2.43;;;1.97;;
5452;SDS011;2749;53.576;9.822;2023-04-24T04:45:49;2.57;;;2.37;;
5452;SDS011;2749;53.576;9.822;2023-04-24T04:48:16;3.50;;;3.20;;
5452;SDS011;2749;53.576;9.822;2023-04-24T04:50:42;1.90;;;1.70;;
5452;SDS011;2749;53.576;9.822;2023-04-24T04:53:08;2.07;;;1.90;;
5452;SDS011;2749;53.576;9.822;2023-04-24T04:55:34;1.93;;;1.73;;
5452;SDS011;2749;53.576;9.822;2023-04-24T04:58:00;5.70;;;2.53;;
5452;SDS011;2749;53.576;9.822;2023-04-24T05:00:26;2.27;;;2.07;;
5452;SDS011;2749;53.576;9.822;2023-04-24T05:02:53;2.57;;;2.37;;
5452;SDS011;2749;53.576;9.822;2023-04-24T05:05:19;4.80;;;2.30;;
5452;SDS011;2749;53.576;9.822;2023-04-24T05:07:45;2.43;;;2.20;;
5452;SDS011;2749;53.576;9.822;2023-04-24T05:10:11;2.30;;;2.13;;
5452;SDS011;2749;53.576;9.822;2023-04-24T05:12:37;3.00;;;2.47;;
5452;SDS011;2749;53.576;9.822;2023-04-24T05:15:03;2.43;;;2.23;;
5452;SDS011;2749;53.576;9.822;2023-04-24T05:17:29;5.83;;;2.20;;
5452;SDS011;2749;53.576;9.822;2023-04-24T05:19:55;2.27;;;2.07;;
5452;SDS011;2749;53.576;9.822;2023-04-24T05:22:21;2.17;;;2.00;;
5452;SDS011;2749;53.576;9.822;2023-04-24T05:24:48;2.60;;;2.40;;
5452;SDS011;2749;53.576;9.822;2023-04-24T05:27:14;2.20;;;1.90;;
5452;SDS011;2749;53.576;9.822;2023-04-24T05:29:40;4.03;;;2.27;;
5452;SDS011;2749;53.576;9.822;2023-04-24T05:32:06;2.20;;;2.00;;
5452;SDS011;2749;53.576;9.822;2023-04-24T05:34:32;1.90;;;1.70;;
5452;SDS011;2749;53.576;9.822;2023-04-24T05:36:58;2.50;;;1.53;;
5452;SDS011;2749;53.576;9.822;2023-04-24T05:39:24;1.50;;;1.40;;
5452;SDS011;2749;53.576;9.822;2023-04-24T05:41:50;2.23;;;2.00;;
5452;SDS011;2749;53.576;9.822;2023-04-24T05:44:16;1.87;;;1.70;;
5452;SDS011;2749;53.576;9.822;2023-04-24T05:46:42;2.20;;;1.53;;
5452;SDS011;2749;53.576;9.822;2023-04-24T05:49:08;1.47;;;1.37;;
5452;SDS011;2749;53.576;9.822;2023-04-24T05:51:34;1.83;;;1.73;;
5452;SDS011;2749;53.576;9.822;2023-04-24T05:54:00;2.03;;;1.93;;
5452;SDS011;2749;53.576;9.822;2023-04-24T05:56:27;2.07;;;1.87;;
5452;SDS011;2749;53.576;9.822;2023-04-24T05:58:54;2.10;;;1.83;;
5452;SDS011;2749;53.576;9.822;2023-04-24T06:01:20;1.87;;;1.77;;
5452;SDS011;2749;53.576;9.822;2023-04-24T06:03:46;2.23;;;1.50;;
5452;SDS011;2749;53.576;9.822;2023-04-24T06:06:12;3.67;;;2.10;;
5452;SDS011;2749;53.576;9.822;2023-04-24T06:08:38;2.83;;;1.60;;
5452;SDS011;2749;53.576;9.822;2023-04-24T06:11:04;3.60;;;2.50;;
5452;SDS011;2749;53.576;9.822;2023-04-24T06:13:30;2.10;;;1.90;;
5452;SDS011;2749;53.576;9.822;2023-04-24T06:15:56;1.97;;;1.77;;
5452;SDS011;2749;53.576;9.822;2023-04-24T06:18:22;3.90;;;2.67;;
5452;SDS011;2749;53.576;9.822;2023-04-24T06:20:48;1.90;;;1.60;;
5452;SDS011;2749;53.576;9.822;2023-04-24T06:23:14;2.50;;;2.27;;
5452;SDS011;2749;53.576;9.822;2023-04-24T06:25:40;2.70;;;2.43;;
5452;SDS011;2749;53.576;9.822;2023-04-24T06:28:06;1.90;;;1.70;;
5452;SDS011;2749;53.576;9.822;2023-04-24T06:30:32;2.37;;;2.10;;
5452;SDS011;2749;53.576;9.822;2023-04-24T06:32:58;3.80;;;2.63;;
5452;SDS011;2749;53.576;9.822;2023-04-24T06:35:24;1.77;;;1.67;;
5452;SDS011;2749;53.576;9.822;2023-04-24T06:37:50;1.90;;;1.70;;
5452;SDS011;2749;53.576;9.822;2023-04-24T06:40:16;1.77;;;1.67;;
5452;SDS011;2749;53.576;9.822;2023-04-24T06:42:43;2.00;;;1.90;;
5452;SDS011;2749;53.576;9.822;2023-04-24T06:45:09;3.30;;;2.70;;
5452;SDS011;2749;53.576;9.822;2023-04-24T06:47:35;3.10;;;2.43;;
5452;SDS011;2749;53.576;9.822;2023-04-24T06:50:01;4.90;;;2.50;;
5452;SDS011;2749;53.576;9.822;2023-04-24T06:52:27;3.17;;;2.00;;
5452;SDS011;2749;53.576;9.822;2023-04-24T06:54:59;2.90;;;2.07;;
5452;SDS011;2749;53.576;9.822;2023-04-24T06:57:25;3.10;;;2.77;;
5452;SDS011;2749;53.576;9.822;2023-04-24T06:59:51;2.50;;;2.17;;
5452;SDS011;2749;53.576;9.822;2023-04-24T07:02:17;2.93;;;2.70;;
5452;SDS011;2749;53.576;9.822;2023-04-24T07:04:42;3.57;;;3.27;;
5452;SDS011;2749;53.576;9.822;2023-04-24T07:07:08;13.00;;;3.27;;
5452;SDS011;2749;53.576;9.822;2023-04-24T07:09:37;4.83;;;2.70;;
5452;SDS011;2749;53.576;9.822;2023-04-24T07:12:05;3.00;;;2.70;;
5452;SDS011;2749;53.576;9.822;2023-04-24T07:14:32;4.60;;;3.37;;
5452;SDS011;2749;53.576;9.822;2023-04-24T07:16:58;3.70;;;3.40;;
5452;SDS011;2749;53.576;9.822;2023-04-24T07:19:24;4.80;;;3.20;;
5452;SDS011;2749;53.576;9.822;2023-04-24T07:21:50;4.07;;;3.73;;
5452;SDS011;2749;53.576;9.822;2023-04-24T07:24:16;4.70;;;4.30;;
5452;SDS011;2749;53.576;9.822;2023-04-24T07:26:41;8.67;;;4.20;;
5452;SDS011;2749;53.576;9.822;2023-04-24T07:29:07;8.20;;;4.43;;
5452;SDS011;2749;53.576;9.822;2023-04-24T07:31:33;3.80;;;3.50;;
5452;SDS011;2749;53.576;9.822;2023-04-24T07:33:59;4.00;;;3.43;;
5452;SDS011;2749;53.576;9.822;2023-04-24T07:36:25;4.23;;;3.60;;
5452;SDS011;2749;53.576;9.822;2023-04-24T07:38:52;5.97;;;4.33;;
5452;SDS011;2749;53.576;9.822;2023-04-24T07:41:19;4.90;;;4.50;;
5452;SDS011;2749;53.576;9.822;2023-04-24T07:43:46;5.60;;;4.40;;
5452;SDS011;2749;53.576;9.822;2023-04-24T07:46:12;4.60;;;4.17;;
5452;SDS011;2749;53.576;9.822;2023-04-24T07:48:38;5.20;;;4.70;;
5452;SDS011;2749;53.576;9.822;2023-04-24T07:51:04;5.50;;;5.10;;
5452;SDS011;2749;53.576;9.822;2023-04-24T07:53:30;5.33;;;4.90;;
5452;SDS011;2749;53.576;9.822;2023-04-24T07:55:56;4.73;;;4.40;;
5452;SDS011;2749;53.576;9.822;2023-04-24T07:58:22;5.63;;;5.20;;
5452;SDS011;2749;53.576;9.822;2023-04-24T08:00:48;5.40;;;5.00;;
5452;SDS011;2749;53.576;9.822;2023-04-24T08:03:14;7.50;;;5.00;;
5452;SDS011;2749;53.576;9.822;2023-04-24T08:05:43;6.70;;;5.73;;
5452;SDS011;2749;53.576;9.822;2023-04-24T08:08:09;5.13;;;4.63;;
5452;SDS011;2749;53.576;9.822;2023-04-24T08:10:34;5.00;;;4.60;;
5452;SDS011;2749;53.576;9.822;2023-04-24T08:13:00;4.67;;;4.27;;
5452;SDS011;2749;53.576;9.822;2023-04-24T08:15:27;3.53;;;3.23;;
5452;SDS011;2749;53.576;9.822;2023-04-24T08:17:53;4.70;;;4.30;;
5452;SDS011;2749;53.576;9.822;2023-04-24T08:20:19;3.50;;;3.20;;
5452;SDS011;2749;53.576;9.822;2023-04-24T08:22:45;4.53;;;4.13;;
5452;SDS011;2749;53.576;9.822;2023-04-24T08:25:12;4.47;;;3.97;;
5452;SDS011;2749;53.576;9.822;2023-04-24T08:27:38;5.07;;;4.47;;
5452;SDS011;2749;53.576;9.822;2023-04-24T08:30:05;6.13;;;5.23;;
5452;SDS011;2749;53.576;9.822;2023-04-24T08:32:31;7.43;;;5.83;;
5452;SDS011;2749;53.576;9.822;2023-04-24T08:34:57;5.30;;;4.90;;
5452;SDS011;2749;53.576;9.822;2023-04-24T08:37:23;6.00;;;5.43;;
5452;SDS011;2749;53.576;9.822;2023-04-24T08:39:50;4.73;;;4.33;;
5452;SDS011;2749;53.576;9.822;2023-04-24T08:42:16;6.90;;;6.20;;
5452;SDS011;2749;53.576;9.822;2023-04-24T08:44:43;8.47;;;5.10;;
5452;SDS011;2749;53.576;9.822;2023-04-24T08:47:09;6.33;;;5.73;;
5452;SDS011;2749;53.576;9.822;2023-04-24T08:49:36;6.87;;;6.10;;
5452;SDS011;2749;53.576;9.822;2023-04-24T08:52:02;7.40;;;6.80;;
5452;SDS011;2749;53.576;9.822;2023-04-24T08:54:28;7.20;;;6.00;;
5452;SDS011;2749;53.576;9.822;2023-04-24T08:56:57;6.10;;;5.60;;
5452;SDS011;2749;53.576;9.822;2023-04-24T08:59:25;5.67;;;5.27;;
5452;SDS011;2749;53.576;9.822;2023-04-24T09:01:51;8.07;;;6.57;;
5452;SDS011;2749;53.576;9.822;2023-04-24T09:04:18;7.30;;;6.60;;
5452;SDS011;2749;53.576;9.822;2023-04-24T09:06:47;7.90;;;7.10;;
5452;SDS011;2749;53.576;9.822;2023-04-24T09:09:13;11.57;;;7.33;;
5452;SDS011;2749;53.576;9.822;2023-04-24T09:11:41;6.13;;;5.60;;
5452;SDS011;2749;53.576;9.822;2023-04-24T09:14:07;6.63;;;6.13;;
5452;SDS011;2749;53.576;9.822;2023-04-24T09:16:35;6.73;;;6.03;;
5452;SDS011;2749;53.576;9.822;2023-04-24T09:19:01;8.40;;;7.43;;
5452;SDS011;2749;53.576;9.822;2023-04-24T09:21:31;6.77;;;6.17;;
5452;SDS011;2749;53.576;9.822;2023-04-24T09:23:58;11.07;;;6.37;;
5452;SDS011;2749;53.576;9.822;2023-04-24T09:26:24;7.60;;;7.00;;
5452;SDS011;2749;53.576;9.822;2023-04-24T09:28:51;7.50;;;6.40;;
5452;SDS011;2749;53.576;9.822;2023-04-24T09:31:19;8.43;;;7.63;;
5452;SDS011;2749;53.576;9.822;2023-04-24T09:33:57;14.47;;;6.77;;
5452;SDS011;2749;53.576;9.822;2023-04-24T09:36:30;9.50;;;6.33;;
5452;SDS011;2749;53.576;9.822;2023-04-24T09:39:02;6.90;;;6.23;;
5452;SDS011;2749;53.576;9.822;2023-04-24T09:41:29;7.50;;;6.90;;
5452;SDS011;2749;53.576;9.822;2023-04-24T09:43:55;6.90;;;6.20;;
5452;SDS011;2749;53.576;9.822;2023-04-24T09:46:29;7.00;;;6.20;;
5452;SDS011;2749;53.576;9.822;2023-04-24T09:48:56;7.00;;;6.30;;
5452;SDS011;2749;53.576;9.822;2023-04-24T09:51:34;8.63;;;6.60;;
5452;SDS011;2749;53.576;9.822;2023-04-24T09:54:19;6.40;;;5.87;;
5452;SDS011;2749;53.576;9.822;2023-04-24T09:56:46;7.23;;;6.60;;
5452;SDS011;2749;53.576;9.822;2023-04-24T09:59:14;9.63;;;8.13;;
5452;SDS011;2749;53.576;9.822;2023-04-24T10:01:40;12.50;;;7.60;;
5452;SDS011;2749;53.576;9.822;2023-04-24T10:04:22;9.60;;;7.73;;
5452;SDS011;2749;53.576;9.822;2023-04-24T10:06:49;9.77;;;8.60;;
5452;SDS011;2749;53.576;9.822;2023-04-24T10:09:16;9.20;;;8.20;;
5452;SDS011;2749;53.576;9.822;2023-04-24T10:11:43;11.10;;;8.50;;
5452;SDS011;2749;53.576;9.822;2023-04-24T10:14:13;8.80;;;8.00;;
5452;SDS011;2749;53.576;9.822;2023-04-24T10:16:39;8.93;;;8.03;;
5452;SDS011;2749;53.576;9.822;2023-04-24T10:19:05;12.23;;;9.50;;
5452;SDS011;2749;53.576;9.822;2023-04-24T10:21:32;9.57;;;7.70;;
5452;SDS011;2749;53.576;9.822;2023-04-24T10:23:58;10.37;;;9.37;;
5452;SDS011;2749;53.576;9.822;2023-04-24T10:26:26;9.80;;;8.17;;
5452;SDS011;2749;53.576;9.822;2023-04-24T10:28:52;10.97;;;9.80;;
5452;SDS011;2749;53.576;9.822;2023-04-24T10:31:19;9.93;;;8.93;;
5452;SDS011;2749;53.576;9.822;2023-04-24T10:33:46;11.27;;;10.17;;
5452;SDS011;2749;53.576;9.822;2023-04-24T10:36:12;11.47;;;10.10;;
5452;SDS011;2749;53.576;9.822;2023-04-24T10:38:39;11.50;;;10.37;;
5452;SDS011;2749;53.576;9.822;2023-04-24T10:41:07;10.10;;;9.13;;
5452;SDS011;2749;53.576;9.822;2023-04-24T10:43:34;10.70;;;9.60;;
5452;SDS011;2749;53.576;9.822;2023-04-24T10:46:00;13.03;;;10.57;;
5452;SDS011;2749;53.576;9.822;2023-04-24T10:48:27;10.73;;;9.73;;
5452;SDS011;2749;53.576;9.822;2023-04-24T10:50:53;13.00;;;10.33;;
5452;SDS011;2749;53.576;9.822;2023-04-24T10:53:20;13.10;;;11.07;;
5452;SDS011;2749;53.576;9.822;2023-04-24T10:55:58;10.80;;;9.70;;
5452;SDS011;2749;53.576;9.822;2023-04-24T10:58:36;11.87;;;9.90;;
5452;SDS011;2749;53.576;9.822;2023-04-24T11:01:03;11.43;;;10.40;;
5452;SDS011;2749;53.576;9.822;2023-04-24T11:03:33;13.30;;;10.80;;
5452;SDS011;2749;53.576;9.822;2023-04-24T11:06:00;12.10;;;11.00;;
5452;SDS011;2749;53.576;9.822;2023-04-24T11:08:42;11.23;;;10.13;;
5452;SDS011;2749;53.576;9.822;2023-04-24T11:11:12;11.43;;;10.30;;
5452;SDS011;2749;53.576;9.822;2023-04-24T11:16:28;10.37;;;8.80;;
5452;SDS011;2749;53.576;9.822;2023-04-24T11:19:17;13.77;;;10.10;;
5452;SDS011;2749;53.576;9.822;2023-04-24T11:21:47;14.07;;;12.37;;
5452;SDS011;2749;53.576;9.822;2023-04-24T11:26:50;11.13;;;10.10;;
5452;SDS011;2749;53.576;9.822;2023-04-24T11:29:17;11.57;;;10.37;;
5452;SDS011;2749;53.576;9.822;2023-04-24T11:31:45;14.23;;;10.10;;
5452;SDS011;2749;53.576;9.822;2023-04-24T11:34:14;11.00;;;9.90;;
5452;SDS011;2749;53.576;9.822;2023-04-24T11:36:47;10.80;;;9.80;;
5452;SDS011;2749;53.576;9.822;2023-04-24T11:39:13;13.10;;;11.10;;
5452;SDS011;2749;53.576;9.822;2023-04-24T11:41:40;10.87;;;9.90;;
5452;SDS011;2749;53.576;9.822;2023-04-24T11:44:06;10.30;;;8.83;;
5452;SDS011;2749;53.576;9.822;2023-04-24T11:46:32;13.07;;;10.03;;
5452;SDS011;2749;53.576;9.822;2023-04-24T11:48:58;12.33;;;11.23;;
5452;SDS011;2749;53.576;9.822;2023-04-24T11:51:25;13.30;;;9.93;;
5452;SDS011;2749;53.576;9.822;2023-04-24T11:53:51;10.90;;;10.00;;
5452;SDS011;2749;53.576;9.822;2023-04-24T11:56:18;11.57;;;9.70;;
5452;SDS011;2749;53.576;9.822;2023-04-24T11:58:44;8.73;;;7.93;;
5452;SDS011;2749;53.576;9.822;2023-04-24T12:01:11;9.87;;;7.93;;
5452;SDS011;2749;53.576;9.822;2023-04-24T12:03:37;8.07;;;7.27;;
5452;SDS011;2749;53.576;9.822;2023-04-24T12:06:06;8.27;;;6.93;;
5452;SDS011;2749;53.576;9.822;2023-04-24T12:08:33;8.00;;;7.30;;
5452;SDS011;2749;53.576;9.822;2023-04-24T12:11:02;9.63;;;8.50;;
5452;SDS011;2749;53.576;9.822;2023-04-24T12:13:28;10.83;;;7.47;;
5452;SDS011;2749;53.576;9.822;2023-04-24T12:15:56;13.30;;;11.33;;
5452;SDS011;2749;53.576;9.822;2023-04-24T12:18:22;8.37;;;7.57;;
5452;SDS011;2749;53.576;9.822;2023-04-24T12:20:48;8.70;;;7.33;;
5452;SDS011;2749;53.576;9.822;2023-04-24T12:23:15;9.03;;;8.23;;
5452;SDS011;2749;53.576;9.822;2023-04-24T12:25:41;7.43;;;6.73;;
5452;SDS011;2749;53.576;9.822;2023-04-24T12:28:11;7.20;;;6.60;;
5452;SDS011;2749;53.576;9.822;2023-04-24T12:30:41;18.03;;;8.23;;
5452;SDS011;2749;53.576;9.822;2023-04-24T12:33:09;13.53;;;7.10;;
5452;SDS011;2749;53.576;9.822;2023-04-24T12:35:35;8.17;;;7.37;;
5452;SDS011;2749;53.576;9.822;2023-04-24T12:38:09;10.80;;;7.60;;
5452;SDS011;2749;53.576;9.822;2023-04-24T12:40:36;9.17;;;8.20;;
5452;SDS011;2749;53.576;9.822;2023-04-24T12:43:02;8.13;;;7.37;;
5452;SDS011;2749;53.576;9.822;2023-04-24T12:45:28;7.93;;;7.13;;
5452;SDS011;2749;53.576;9.822;2023-04-24T12:47:54;8.30;;;7.50;;
5452;SDS011;2749;53.576;9.822;2023-04-24T12:50:20;8.20;;;6.77;;
5452;SDS011;2749;53.576;9.822;2023-04-24T12:52:46;8.17;;;7.00;;
5452;SDS011;2749;53.576;9.822;2023-04-24T12:55:12;7.57;;;6.97;;
5452;SDS011;2749;53.576;9.822;2023-04-24T12:57:38;6.90;;;6.30;;
5452;SDS011;2749;53.576;9.822;2023-04-24T13:00:05;7.00;;;6.40;;
5452;SDS011;2749;53.576;9.822;2023-04-24T13:02:31;6.63;;;6.13;;
5452;SDS011;2749;53.576;9.822;2023-04-24T13:04:58;6.80;;;6.20;;
5452;SDS011;2749;53.576;9.822;2023-04-24T13:07:24;5.20;;;4.70;;
5452;SDS011;2749;53.576;9.822;2023-04-24T13:09:51;6.63;;;6.07;;
5452;SDS011;2749;53.576;9.822;2023-04-24T13:12:17;6.63;;;5.93;;
5452;SDS011;2749;53.576;9.822;2023-04-24T13:14:43;5.47;;;5.07;;
5452;SDS011;2749;53.576;9.822;2023-04-24T13:17:10;6.20;;;5.70;;
5452;SDS011;2749;53.576;9.822;2023-04-24T13:19:38;6.17;;;5.57;;
5452;SDS011;2749;53.576;9.822;2023-04-24T13:22:04;6.90;;;6.30;;
5452;SDS011;2749;53.576;9.822;2023-04-24T13:24:30;12.90;;;7.93;;
5452;SDS011;2749;53.576;9.822;2023-04-24T13:26:56;6.93;;;6.27;;
5452;SDS011;2749;53.576;9.822;2023-04-24T13:29:23;7.20;;;6.50;;
5452;SDS011;2749;53.576;9.822;2023-04-24T13:31:52;6.93;;;6.30;;
5452;SDS011;2749;53.576;9.822;2023-04-24T13:34:21;8.27;;;7.57;;
5452;SDS011;2749;53.576;9.822;2023-04-24T13:36:48;6.30;;;5.80;;
5452;SDS011;2749;53.576;9.822;2023-04-24T13:39:15;7.93;;;7.17;;
5452;SDS011;2749;53.576;9.822;2023-04-24T13:41:41;8.67;;;6.90;;
5452;SDS011;2749;53.576;9.822;2023-04-24T13:44:07;7.87;;;7.17;;
5452;SDS011;2749;53.576;9.822;2023-04-24T13:46:33;6.30;;;5.80;;
5452;SDS011;2749;53.576;9.822;2023-04-24T13:48:59;13.53;;;10.97;;
5452;SDS011;2749;53.576;9.822;2023-04-24T13:51:25;8.00;;;7.30;;
5452;SDS011;2749;53.576;9.822;2023-04-24T13:53:52;10.00;;;7.00;;
5452;SDS011;2749;53.576;9.822;2023-04-24T13:56:18;6.60;;;6.10;;
5452;SDS011;2749;53.576;9.822;2023-04-24T13:58:44;6.77;;;6.07;;
5452;SDS011;2749;53.576;9.822;2023-04-24T14:01:10;7.10;;;6.50;;
5452;SDS011;2749;53.576;9.822;2023-04-24T14:03:36;6.90;;;6.30;;
5452;SDS011;2749;53.576;9.822;2023-04-24T14:06:02;7.90;;;6.53;;
5452;SDS011;2749;53.576;9.822;2023-04-24T14:08:28;8.93;;;8.23;;
5452;SDS011;2749;53.576;9.822;2023-04-24T14:10:54;7.77;;;7.07;;
5452;SDS011;2749;53.576;9.822;2023-04-24T14:13:20;8.50;;;7.60;;
5452;SDS011;2749;53.576;9.822;2023-04-24T14:15:46;9.40;;;8.60;;
5452;SDS011;2749;53.576;9.822;2023-04-24T14:18:12;10.50;;;9.43;;
5452;SDS011;2749;53.576;9.822;2023-04-24T14:20:38;10.73;;;9.73;;
5452;SDS011;2749;53.576;9.822;2023-04-24T14:23:05;10.33;;;9.30;;
5452;SDS011;2749;53.576;9.822;2023-04-24T14:25:30;13.20;;;9.97;;
5452;SDS011;2749;53.576;9.822;2023-04-24T14:27:56;13.00;;;11.00;;
5452;SDS011;2749;53.576;9.822;2023-04-24T14:30:22;10.50;;;9.40;;
5452;SDS011;2749;53.576;9.822;2023-04-24T14:32:48;14.80;;;11.20;;
5452;SDS011;2749;53.576;9.822;2023-04-24T14:35:14;12.53;;;11.27;;
5452;SDS011;2749;53.576;9.822;2023-04-24T14:37:40;12.23;;;11.03;;
5452;SDS011;2749;53.576;9.822;2023-04-24T14:40:07;15.33;;;12.53;;
5452;SDS011;2749;53.576;9.822;2023-04-24T14:42:34;13.30;;;12.00;;
5452;SDS011;2749;53.576;9.822;2023-04-24T14:45:00;13.93;;;12.53;;
5452;SDS011;2749;53.576;9.822;2023-04-24T14:47:26;15.67;;;11.37;;
5452;SDS011;2749;53.576;9.822;2023-04-24T14:49:52;11.53;;;10.33;;
5452;SDS011;2749;53.576;9.822;2023-04-24T14:52:18;13.33;;;9.03;;
5452;SDS011;2749;53.576;9.822;2023-04-24T14:54:44;10.57;;;9.30;;
5452;SDS011;2749;53.576;9.822;2023-04-24T14:57:10;11.70;;;8.50;;
5452;SDS011;2749;53.576;9.822;2023-04-24T14:59:36;12.27;;;10.13;;
5452;SDS011;2749;53.576;9.822;2023-04-24T15:02:02;10.10;;;8.90;;
5452;SDS011;2749;53.576;9.822;2023-04-24T15:04:28;9.83;;;8.13;;
5452;SDS011;2749;53.576;9.822;2023-04-24T15:06:54;8.13;;;6.77;;
5452;SDS011;2749;53.576;9.822;2023-04-24T15:09:20;5.90;;;4.30;;
5452;SDS011;2749;53.576;9.822;2023-04-24T15:11:47;6.27;;;4.60;;
5452;SDS011;2749;53.576;9.822;2023-04-24T15:14:14;3.90;;;3.53;;